Time;durP1;ratioP1;P1;durP2;ratioP2;P2;SDS_P1;SDS_P2;PMS_P1;PMS_P2;Temp;Humidity;BMP_temperature;BMP_pressure;BME280_temperature;BME280_humidity;BME280_pressure;Samples;Min_cycle;Max_cycle;Signal;HPM_P1;HPM_P2
2021/11/29 00:01:29;;;;;;;0.57;0.57;;;4.50;99.90;;;;;;5036375;28;20271;-84
2021/11/29 00:03:54;;;;;;;0.70;0.70;;;4.60;99.90;;;;;;5028462;28;20256;-84
2021/11/29 00:06:21;;;;;;;0.10;0.10;;;4.60;99.90;;;;;;5049266;28;20178;-84
2021/11/29 00:08:47;;;;;;;0.30;0.30;;;4.60;99.90;;;;;;5030632;28;20755;-84
2021/11/29 00:11:13;;;;;;;0.70;0.70;;;4.40;99.90;;;;;;5044893;28;20182;-84
2021/11/29 00:13:39;;;;;;;2.07;0.97;;;4.40;99.90;;;;;;5033835;28;20246;-84
2021/11/29 00:16:05;;;;;;;1.60;0.83;;;4.50;99.90;;;;;;5040776;28;20659;-84
2021/11/29 00:18:30;;;;;;;0.80;0.80;;;4.50;99.90;;;;;;5034652;28;20204;-84
2021/11/29 00:20:56;;;;;;;0.30;0.30;;;4.20;99.90;;;;;;5046780;28;20618;-84
2021/11/29 00:23:22;;;;;;;1.27;1.23;;;4.20;99.90;;;;;;5028592;28;20678;-84
2021/11/29 00:25:48;;;;;;;0.20;0.20;;;4.20;99.90;;;;;;5029669;28;20181;-85
2021/11/29 00:28:14;;;;;;;1.03;0.93;;;4.20;99.90;;;;;;5028904;28;20192;-84
2021/11/29 00:30:41;;;;;;;0.10;0.10;;;4.20;99.90;;;;;;5049228;28;20188;-84
2021/11/29 00:33:07;;;;;;;0.60;0.50;;;4.30;99.90;;;;;;5039512;28;20656;-84
2021/11/29 00:35:33;;;;;;;2.10;0.60;;;4.30;99.90;;;;;;5038825;28;20182;-84
2021/11/29 00:37:59;;;;;;;1.00;0.57;;;4.20;99.90;;;;;;5030632;28;20204;-84
2021/11/29 00:40:25;;;;;;;0.20;0.20;;;4.10;99.90;;;;;;5022428;28;20185;-84
2021/11/29 00:42:51;;;;;;;1.57;0.80;;;4.10;99.90;;;;;;5033848;28;20357;-83
2021/11/29 00:45:16;;;;;;;1.10;0.70;;;4.20;99.90;;;;;;5049748;28;20184;-84
2021/11/29 00:47:42;;;;;;;0.57;0.47;;;4.20;99.90;;;;;;5041342;28;20189;-84
2021/11/29 00:50:09;;;;;;;0.27;0.27;;;4.30;99.90;;;;;;5044712;28;20225;-84
2021/11/29 00:52:35;;;;;;;0.57;0.40;;;4.30;99.90;;;;;;5023035;28;20545;-84
2021/11/29 00:55:00;;;;;;;0.40;0.40;;;4.30;99.90;;;;;;5048639;28;20223;-84
2021/11/29 00:57:26;;;;;;;0.60;0.43;;;4.20;99.90;;;;;;5051064;28;20198;-84
2021/11/29 00:59:51;;;;;;;1.60;0.77;;;4.20;99.90;;;;;;5021403;28;20176;-85
2021/11/29 01:02:17;;;;;;;3.33;1.17;;;4.20;99.90;;;;;;5033960;28;20259;-84
2021/11/29 01:04:44;;;;;;;0.90;0.67;;;4.10;99.90;;;;;;5029203;28;20249;-84
2021/11/29 01:07:10;;;;;;;0.67;0.63;;;4.00;99.90;;;;;;5045608;28;20261;-84
2021/11/29 01:09:37;;;;;;;0.53;0.53;;;3.90;99.90;;;;;;5034726;28;20182;-84
2021/11/29 01:12:03;;;;;;;1.37;0.73;;;3.90;99.90;;;;;;5035720;28;20228;-84
2021/11/29 01:14:29;;;;;;;0.50;0.50;;;3.90;99.90;;;;;;5027906;28;20191;-84
2021/11/29 01:16:54;;;;;;;1.67;1.53;;;3.90;99.90;;;;;;5022677;28;20238;-84
2021/11/29 01:19:20;;;;;;;0.40;0.40;;;3.80;99.90;;;;;;5032596;28;20213;-85
2021/11/29 01:21:46;;;;;;;0.47;0.33;;;3.80;99.90;;;;;;5024909;28;20184;-83
2021/11/29 01:24:11;;;;;;;0.97;0.97;;;3.70;99.90;;;;;;5027655;28;20175;-85
2021/11/29 01:26:37;;;;;;;0.43;0.43;;;3.70;99.90;;;;;;5052015;28;20176;-84
2021/11/29 01:29:03;;;;;;;0.50;0.33;;;3.60;99.90;;;;;;5027549;28;20204;-84
2021/11/29 01:31:28;;;;;;;1.27;0.63;;;3.60;99.90;;;;;;5034504;28;20184;-84
2021/11/29 01:33:54;;;;;;;0.20;0.20;;;3.50;99.90;;;;;;5031923;28;20184;-83
2021/11/29 01:36:20;;;;;;;0.17;0.17;;;3.40;99.90;;;;;;5035449;28;20713;-84
2021/11/29 01:38:45;;;;;;;0.10;0.10;;;3.30;99.90;;;;;;5033383;28;20695;-84
2021/11/29 01:41:13;;;;;;;0.70;0.70;;;3.10;99.90;;;;;;5035826;28;20187;-84
2021/11/29 01:43:39;;;;;;;1.00;0.53;;;3.00;99.90;;;;;;5035203;28;20207;-84
2021/11/29 01:46:05;;;;;;;1.07;1.07;;;2.90;99.90;;;;;;5035360;28;20205;-83
2021/11/29 01:48:30;;;;;;;0.30;0.30;;;3.00;99.90;;;;;;5035244;28;20268;-84
2021/11/29 01:50:58;;;;;;;0.40;0.40;;;2.90;99.90;;;;;;5047000;28;20693;-83
2021/11/29 01:53:26;;;;;;;0.40;0.40;;;2.90;99.90;;;;;;5035453;28;20600;-84
2021/11/29 01:55:53;;;;;;;0.40;0.40;;;2.90;99.90;;;;;;5033625;28;20189;-84
2021/11/29 01:58:19;;;;;;;0.97;0.43;;;2.80;99.90;;;;;;5033994;28;20217;-84
2021/11/29 02:00:50;;;;;;;0.20;0.20;;;2.70;99.90;;;;;;5023491;28;20208;-84
2021/11/29 02:03:17;;;;;;;0.37;0.37;;;2.70;99.90;;;;;;5052955;28;20195;-84
2021/11/29 02:05:43;;;;;;;1.07;1.07;;;2.70;99.90;;;;;;5027373;28;20180;-85
2021/11/29 02:08:09;;;;;;;0.10;0.10;;;2.70;99.90;;;;;;5018948;28;20246;-84
2021/11/29 02:10:35;;;;;;;0.30;0.30;;;2.70;99.90;;;;;;5032455;28;20192;-84
2021/11/29 02:13:03;;;;;;;0.53;0.37;;;2.70;99.90;;;;;;5030711;28;20495;-83
2021/11/29 02:15:29;;;;;;;0.33;0.33;;;2.70;99.90;;;;;;5026178;28;20187;-85
2021/11/29 02:17:57;;;;;;;0.37;0.37;;;2.70;99.90;;;;;;5051279;28;20213;-84
2021/11/29 02:20:23;;;;;;;0.47;0.47;;;2.60;99.90;;;;;;5035707;28;20185;-84
2021/11/29 02:22:50;;;;;;;0.27;0.27;;;2.60;99.90;;;;;;5039597;28;20205;-84
2021/11/29 02:25:19;;;;;;;0.50;0.50;;;2.60;99.90;;;;;;5049938;28;20217;-85
2021/11/29 02:27:45;;;;;;;0.33;0.33;;;2.60;99.90;;;;;;5035060;28;20199;-83
2021/11/29 02:30:13;;;;;;;1.10;0.50;;;2.50;99.90;;;;;;5033594;28;20626;-84
2021/11/29 02:32:38;;;;;;;0.10;0.10;;;2.50;99.90;;;;;;5039725;28;20665;-84
2021/11/29 02:35:05;;;;;;;0.20;0.20;;;2.50;99.90;;;;;;5035815;28;20270;-84
2021/11/29 02:37:30;;;;;;;0.10;0.10;;;2.40;99.90;;;;;;5038912;28;20184;-85
2021/11/29 02:39:57;;;;;;;0.57;0.20;;;2.50;99.90;;;;;;5039222;28;20594;-84
2021/11/29 02:42:23;;;;;;;0.30;0.30;;;2.40;99.90;;;;;;5028163;28;20213;-84
2021/11/29 02:44:49;;;;;;;0.47;0.47;;;2.40;99.90;;;;;;5031264;28;20555;-84
2021/11/29 02:47:14;;;;;;;1.37;0.90;;;2.50;99.90;;;;;;5055118;28;20222;-85
2021/11/29 02:49:40;;;;;;;1.80;1.57;;;2.40;99.90;;;;;;5039093;28;20185;-83
2021/11/29 02:52:09;;;;;;;0.10;0.10;;;2.40;99.90;;;;;;5037744;28;20334;-83
2021/11/29 02:54:39;;;;;;;0.10;0.10;;;2.40;99.90;;;;;;5057293;28;20206;-84
2021/11/29 02:57:08;;;;;;;3.40;0.60;;;2.50;99.90;;;;;;5054553;28;20186;-83
2021/11/29 02:59:36;;;;;;;0.40;0.40;;;2.50;99.90;;;;;;5052171;28;20209;-84
2021/11/29 03:02:06;;;;;;;0.47;0.30;;;2.50;99.90;;;;;;5039763;28;20239;-83
2021/11/29 03:04:33;;;;;;;0.50;0.50;;;2.50;99.90;;;;;;5031496;28;20178;-83
2021/11/29 03:07:00;;;;;;;0.77;0.50;;;2.50;99.90;;;;;;5041445;28;20183;-83
2021/11/29 03:09:26;;;;;;;0.30;0.27;;;2.60;99.90;;;;;;5043123;28;20235;-83
2021/11/29 03:11:53;;;;;;;0.23;0.23;;;2.60;99.90;;;;;;5044899;28;20187;-84
2021/11/29 03:14:19;;;;;;;0.20;0.20;;;2.50;99.90;;;;;;5057410;28;20198;-83
2021/11/29 03:16:45;;;;;;;0.97;0.97;;;2.50;99.90;;;;;;5035407;28;20268;-84
2021/11/29 03:19:11;;;;;;;0.63;0.40;;;2.50;99.90;;;;;;5039002;28;20602;-84
2021/11/29 03:21:37;;;;;;;1.90;0.53;;;2.40;99.90;;;;;;5033606;28;20193;-83
2021/11/29 03:24:06;;;;;;;0.40;0.40;;;2.40;99.90;;;;;;5035524;28;20187;-84
2021/11/29 03:26:32;;;;;;;0.40;0.30;;;2.40;99.90;;;;;;5037515;28;20217;-83
2021/11/29 03:29:01;;;;;;;0.20;0.10;;;2.40;99.90;;;;;;5036048;28;20201;-83
2021/11/29 03:31:32;;;;;;;0.53;0.53;;;2.40;99.90;;;;;;5033237;28;20182;-83
2021/11/29 03:34:00;;;;;;;0.20;0.20;;;2.30;99.90;;;;;;5037735;28;20182;-84
2021/11/29 03:36:27;;;;;;;0.30;0.30;;;2.40;99.90;;;;;;5027539;28;20182;-83
2021/11/29 03:38:53;;;;;;;0.00;0.00;;;2.30;99.90;;;;;;5038056;28;20206;-83
2021/11/29 03:41:20;;;;;;;0.30;0.27;;;2.30;99.90;;;;;;5035014;28;20197;-83
2021/11/29 03:43:45;;;;;;;0.37;0.37;;;2.30;99.90;;;;;;5055111;28;20202;-84
2021/11/29 03:46:11;;;;;;;1.83;0.43;;;2.30;99.90;;;;;;5037453;28;20230;-83
2021/11/29 03:48:37;;;;;;;0.13;0.13;;;2.30;99.90;;;;;;5056246;28;20261;-84
2021/11/29 03:51:04;;;;;;;0.07;0.07;;;2.40;99.90;;;;;;5033883;28;20276;-84
2021/11/29 03:53:30;;;;;;;0.40;0.40;;;2.30;99.90;;;;;;5031283;28;20196;-83
2021/11/29 03:55:56;;;;;;;0.40;0.40;;;2.40;99.90;;;;;;5035093;28;20192;-83
2021/11/29 03:58:22;;;;;;;0.10;0.10;;;2.40;99.90;;;;;;5050703;28;20246;-83
2021/11/29 04:00:48;;;;;;;0.27;0.27;;;2.40;99.90;;;;;;5051380;28;20226;-84
2021/11/29 04:03:14;;;;;;;0.10;0.10;;;2.40;99.90;;;;;;5045098;28;20226;-83
2021/11/29 04:05:40;;;;;;;0.17;0.17;;;2.40;99.90;;;;;;5031856;28;20191;-83
2021/11/29 04:08:06;;;;;;;0.20;0.20;;;2.40;99.90;;;;;;5036438;28;20208;-84
2021/11/29 04:10:32;;;;;;;0.47;0.30;;;2.40;99.90;;;;;;5031035;28;20690;-83
2021/11/29 04:12:58;;;;;;;0.20;0.20;;;2.40;99.90;;;;;;5030956;28;20188;-83
2021/11/29 04:15:24;;;;;;;0.10;0.10;;;2.40;99.90;;;;;;5049773;28;20268;-84
2021/11/29 04:17:49;;;;;;;1.37;0.40;;;2.30;99.90;;;;;;5038159;28;20287;-84
2021/11/29 04:20:16;;;;;;;0.20;0.20;;;2.30;99.90;;;;;;5037890;28;20186;-84
2021/11/29 04:22:45;;;;;;;0.47;0.47;;;2.20;99.90;;;;;;5034161;28;20203;-83
2021/11/29 04:25:18;;;;;;;0.47;0.47;;;2.20;99.90;;;;;;5038552;28;20179;-83
2021/11/29 04:27:45;;;;;;;1.27;0.57;;;2.20;99.90;;;;;;5039699;28;20196;-84
2021/11/29 04:30:17;;;;;;;1.33;0.47;;;2.20;99.90;;;;;;5039184;28;20659;-83
2021/11/29 04:32:43;;;;;;;0.77;0.33;;;2.20;99.90;;;;;;5039313;28;20190;-83
2021/11/29 04:35:09;;;;;;;0.10;0.10;;;2.20;99.90;;;;;;5037098;28;20190;-84
2021/11/29 04:37:35;;;;;;;0.10;0.10;;;2.20;99.90;;;;;;5031959;28;20210;-83
2021/11/29 04:40:01;;;;;;;0.40;0.40;;;2.20;99.90;;;;;;5034556;28;20538;-82
2021/11/29 04:42:27;;;;;;;0.50;0.23;;;2.20;99.90;;;;;;5037840;28;20236;-84
2021/11/29 04:44:52;;;;;;;0.40;0.33;;;2.20;99.90;;;;;;5035814;28;20215;-83
2021/11/29 04:47:18;;;;;;;0.43;0.30;;;2.20;99.90;;;;;;5032027;28;20214;-84
2021/11/29 04:49:43;;;;;;;0.77;0.40;;;2.20;99.90;;;;;;5031303;28;20193;-84
2021/11/29 04:52:09;;;;;;;0.37;0.37;;;2.20;99.90;;;;;;5035223;28;20203;-84
2021/11/29 04:54:35;;;;;;;0.20;0.20;;;2.10;99.90;;;;;;5024695;28;20266;-83
2021/11/29 04:57:01;;;;;;;0.27;0.27;;;2.20;99.90;;;;;;5032261;28;20598;-84
2021/11/29 04:59:27;;;;;;;0.43;0.43;;;2.20;99.90;;;;;;5053638;28;20263;-84
2021/11/29 05:01:55;;;;;;;0.77;0.50;;;2.20;99.90;;;;;;5036380;28;20283;-84
2021/11/29 05:04:20;;;;;;;0.23;0.23;;;2.20;99.90;;;;;;5035131;28;20185;-83
2021/11/29 05:06:46;;;;;;;0.57;0.57;;;2.20;99.90;;;;;;5036696;28;20174;-84
2021/11/29 05:09:11;;;;;;;0.20;0.20;;;2.20;99.90;;;;;;5029427;28;20199;-84
2021/11/29 05:11:37;;;;;;;0.60;0.60;;;2.10;99.90;;;;;;5034650;28;20212;-84
2021/11/29 05:14:03;;;;;;;0.20;0.20;;;2.10;99.90;;;;;;5027629;28;20193;-84
2021/11/29 05:16:32;;;;;;;0.37;0.30;;;2.10;99.90;;;;;;5025225;28;20229;-84
2021/11/29 05:18:58;;;;;;;0.10;0.10;;;2.10;99.90;;;;;;5048682;28;20194;-84
2021/11/29 05:21:23;;;;;;;0.10;0.10;;;2.20;99.90;;;;;;5034395;28;20627;-83
2021/11/29 05:23:49;;;;;;;0.40;0.40;;;2.20;99.90;;;;;;5030560;28;20260;-83
2021/11/29 05:26:23;;;;;;;4.57;0.43;;;2.30;99.90;;;;;;5023594;28;20176;-84
2021/11/29 05:28:52;;;;;;;0.70;0.70;;;2.40;99.90;;;;;;5036139;28;20207;-83
2021/11/29 05:31:18;;;;;;;0.40;0.30;;;2.50;99.90;;;;;;5037635;28;20186;-83
2021/11/29 05:33:43;;;;;;;0.73;0.73;;;2.50;99.90;;;;;;5049538;28;20211;-83
2021/11/29 05:36:10;;;;;;;1.80;0.50;;;2.60;99.90;;;;;;5035083;28;20178;-84
2021/11/29 05:38:35;;;;;;;0.40;0.30;;;2.70;99.90;;;;;;5038008;28;20234;-83
2021/11/29 05:41:01;;;;;;;0.40;0.40;;;2.70;99.90;;;;;;5038665;28;20238;-83
2021/11/29 05:43:27;;;;;;;0.60;0.57;;;2.70;99.90;;;;;;5032211;28;20214;-83
2021/11/29 05:45:53;;;;;;;1.60;0.20;;;2.70;99.90;;;;;;5037622;28;20546;-83
2021/11/29 05:48:19;;;;;;;0.53;0.53;;;2.70;99.90;;;;;;5038062;28;20291;-83
2021/11/29 05:50:45;;;;;;;0.83;0.50;;;2.60;99.90;;;;;;5037450;28;20599;-82
2021/11/29 05:53:11;;;;;;;0.40;0.40;;;2.60;99.90;;;;;;5035482;28;20554;-82
2021/11/29 05:55:36;;;;;;;2.83;0.60;;;2.50;99.90;;;;;;5034694;28;20271;-82
2021/11/29 05:58:02;;;;;;;0.60;0.60;;;2.50;99.90;;;;;;5029009;28;20562;-82
2021/11/29 06:00:28;;;;;;;0.20;0.20;;;2.50;99.90;;;;;;5029042;28;20186;-83
2021/11/29 06:02:54;;;;;;;0.20;0.20;;;2.50;99.90;;;;;;5030677;28;20569;-83
2021/11/29 06:05:20;;;;;;;0.40;0.40;;;2.50;99.90;;;;;;5028210;28;20280;-82
2021/11/29 06:07:46;;;;;;;0.37;0.30;;;2.50;99.90;;;;;;5040275;28;20217;-83
2021/11/29 06:10:12;;;;;;;1.00;0.93;;;2.50;99.90;;;;;;5038729;28;20185;-82
2021/11/29 06:12:39;;;;;;;0.53;0.53;;;2.50;99.90;;;;;;5063097;28;20176;-84
2021/11/29 06:15:06;;;;;;;1.90;0.40;;;2.40;99.90;;;;;;5036424;28;20231;-83
2021/11/29 06:17:32;;;;;;;0.60;0.60;;;2.30;99.90;;;;;;5035478;28;20186;-83
2021/11/29 06:19:57;;;;;;;0.43;0.40;;;2.20;99.90;;;;;;5034754;28;20183;-84
2021/11/29 06:22:23;;;;;;;0.70;0.70;;;2.20;99.90;;;;;;5036314;28;20257;-83
2021/11/29 06:24:48;;;;;;;0.50;0.50;;;2.20;99.90;;;;;;5037528;28;20178;-83
2021/11/29 06:27:14;;;;;;;0.33;0.33;;;2.20;99.90;;;;;;5029913;28;20226;-83
2021/11/29 06:29:40;;;;;;;0.27;0.27;;;2.20;99.90;;;;;;5030782;28;20189;-84
2021/11/29 06:32:06;;;;;;;0.40;0.40;;;2.20;99.90;;;;;;5024967;28;20648;-84
2021/11/29 06:34:31;;;;;;;0.43;0.37;;;2.10;99.90;;;;;;5034135;28;20236;-83
2021/11/29 06:36:58;;;;;;;1.63;1.53;;;2.10;99.90;;;;;;5036377;28;20640;-83
2021/11/29 06:39:24;;;;;;;2.70;0.50;;;2.20;99.90;;;;;;5034369;28;20275;-83
2021/11/29 06:41:49;;;;;;;1.77;0.47;;;2.20;99.90;;;;;;5055228;28;20185;-83
2021/11/29 06:44:15;;;;;;;0.40;0.40;;;2.20;99.90;;;;;;5038369;28;20174;-82
2021/11/29 06:46:41;;;;;;;0.37;0.37;;;2.30;99.90;;;;;;5053608;28;20222;-83
2021/11/29 06:49:07;;;;;;;0.73;0.73;;;2.30;99.90;;;;;;5033124;28;20256;-84
2021/11/29 06:51:34;;;;;;;0.10;0.10;;;2.40;99.90;;;;;;5035716;28;20193;-84
2021/11/29 06:54:00;;;;;;;1.37;0.90;;;2.40;99.90;;;;;;5031789;28;20176;-83
2021/11/29 06:56:26;;;;;;;0.33;0.33;;;2.50;99.90;;;;;;5030958;28;20230;-84
2021/11/29 06:58:51;;;;;;;1.33;0.20;;;2.60;99.90;;;;;;5063283;28;20207;-84
2021/11/29 07:01:18;;;;;;;0.30;0.30;;;2.70;99.90;;;;;;5027785;28;20195;-84
2021/11/29 07:03:44;;;;;;;1.20;1.10;;;2.70;99.90;;;;;;5021000;28;20235;-84
2021/11/29 07:06:10;;;;;;;0.33;0.33;;;2.80;99.90;;;;;;5032613;28;20633;-84
2021/11/29 07:08:36;;;;;;;0.10;0.10;;;2.80;99.90;;;;;;5035175;28;20229;-84
2021/11/29 07:11:01;;;;;;;0.50;0.50;;;2.90;99.90;;;;;;5030477;28;20209;-84
2021/11/29 07:13:27;;;;;;;1.43;1.33;;;3.00;99.90;;;;;;5036459;28;20205;-84
2021/11/29 07:15:55;;;;;;;1.00;0.40;;;3.10;99.90;;;;;;5051321;28;20179;-84
2021/11/29 07:18:21;;;;;;;0.60;0.60;;;3.20;99.90;;;;;;5034526;28;20216;-84
2021/11/29 07:20:47;;;;;;;1.50;0.97;;;3.20;99.90;;;;;;5036817;28;20192;-84
2021/11/29 07:23:13;;;;;;;0.60;0.40;;;3.30;99.90;;;;;;5032075;28;20198;-84
2021/11/29 07:25:38;;;;;;;0.83;0.83;;;3.30;99.90;;;;;;5046219;28;20185;-83
2021/11/29 07:28:05;;;;;;;0.90;0.90;;;3.40;99.90;;;;;;5037217;28;20295;-83
2021/11/29 07:30:31;;;;;;;0.10;0.10;;;3.50;99.90;;;;;;5034105;28;20210;-83
2021/11/29 07:32:57;;;;;;;0.70;0.30;;;3.60;99.90;;;;;;5037476;28;20240;-85
2021/11/29 07:35:26;;;;;;;0.67;0.67;;;3.80;99.90;;;;;;5045233;28;20556;-84
2021/11/29 07:37:53;;;;;;;0.43;0.43;;;3.90;99.90;;;;;;5038356;28;20705;-82
2021/11/29 07:40:19;;;;;;;0.20;0.13;;;4.00;99.90;;;;;;5038142;28;20716;-90
2021/11/29 07:42:45;;;;;;;0.10;0.10;;;4.20;99.90;;;;;;5038281;28;20354;-83
2021/11/29 07:45:12;;;;;;;0.40;0.40;;;4.20;99.90;;;;;;5034674;28;20219;-83
2021/11/29 07:47:40;;;;;;;0.30;0.30;;;4.30;99.90;;;;;;5030950;28;20273;-84
2021/11/29 07:50:09;;;;;;;0.47;0.47;;;4.30;99.90;;;;;;5033418;28;20200;-83
2021/11/29 07:52:35;;;;;;;1.00;0.47;;;4.40;99.90;;;;;;5050772;28;20795;-83
2021/11/29 07:55:03;;;;;;;0.10;0.10;;;4.30;99.90;;;;;;5034053;28;20201;-82
2021/11/29 07:57:28;;;;;;;2.87;0.90;;;4.20;99.90;;;;;;5051991;28;20185;-83
2021/11/29 07:59:54;;;;;;;0.37;0.37;;;4.10;99.90;;;;;;5050015;28;20272;-83
2021/11/29 08:02:20;;;;;;;0.27;0.27;;;4.20;99.90;;;;;;5033510;28;20210;-83
2021/11/29 08:04:47;;;;;;;0.10;0.10;;;4.00;99.90;;;;;;5033883;28;20594;-83
2021/11/29 08:07:14;;;;;;;0.50;0.40;;;4.00;99.90;;;;;;5050102;28;20183;-83
2021/11/29 08:09:40;;;;;;;0.33;0.33;;;4.00;99.90;;;;;;5033091;28;20208;-83
2021/11/29 08:12:06;;;;;;;0.43;0.43;;;3.90;99.90;;;;;;5034015;28;20220;-83
2021/11/29 08:14:32;;;;;;;0.33;0.33;;;3.90;99.90;;;;;;5029899;28;20193;-83
2021/11/29 08:16:58;;;;;;;0.30;0.30;;;3.90;99.90;;;;;;5031908;28;20207;-83
2021/11/29 08:19:24;;;;;;;0.40;0.40;;;3.80;99.90;;;;;;5032956;28;20302;-83
2021/11/29 08:21:49;;;;;;;0.50;0.47;;;3.80;99.90;;;;;;5050291;28;20253;-83
2021/11/29 08:24:15;;;;;;;0.27;0.27;;;3.70;99.90;;;;;;5031051;28;20240;-83
2021/11/29 08:26:40;;;;;;;0.10;0.10;;;3.70;99.90;;;;;;5030023;28;20183;-82
2021/11/29 08:29:06;;;;;;;0.73;0.63;;;3.70;99.90;;;;;;5030087;28;20294;-80
2021/11/29 08:31:32;;;;;;;0.10;0.10;;;3.70;99.90;;;;;;5049088;28;20180;-80
2021/11/29 08:33:57;;;;;;;0.20;0.20;;;3.60;99.90;;;;;;5048391;28;20203;-81
2021/11/29 08:36:23;;;;;;;0.40;0.40;;;3.60;99.90;;;;;;5049570;28;20185;-82
2021/11/29 08:38:49;;;;;;;0.20;0.20;;;3.60;99.90;;;;;;5035141;28;20210;-82
2021/11/29 08:41:16;;;;;;;1.10;0.30;;;3.60;99.90;;;;;;5052444;28;20207;-81
2021/11/29 08:43:42;;;;;;;5.60;1.00;;;3.60;99.90;;;;;;5033155;28;20218;-81
2021/11/29 08:46:08;;;;;;;0.40;0.40;;;3.70;99.90;;;;;;5049995;28;20206;-81
2021/11/29 08:48:33;;;;;;;0.43;0.40;;;3.60;99.90;;;;;;5033933;28;20205;-82
2021/11/29 08:50:59;;;;;;;0.60;0.53;;;3.60;99.90;;;;;;5033492;28;20192;-82
2021/11/29 08:53:26;;;;;;;0.30;0.30;;;3.70;99.90;;;;;;5059578;28;20178;-84
2021/11/29 08:55:53;;;;;;;0.10;0.10;;;3.80;99.90;;;;;;5049642;28;20190;-85
2021/11/29 08:58:21;;;;;;;0.20;0.20;;;3.80;99.90;;;;;;5032444;28;20217;-84
2021/11/29 09:00:49;;;;;;;0.80;0.80;;;3.80;99.90;;;;;;5030914;28;20185;-84
2021/11/29 09:03:15;;;;;;;5.23;0.47;;;3.70;99.90;;;;;;5030188;28;20267;-85
2021/11/29 09:05:43;;;;;;;0.30;0.30;;;3.70;99.90;;;;;;5030225;28;21293;-84
2021/11/29 09:08:11;;;;;;;0.10;0.10;;;3.70;99.90;;;;;;5029711;28;20663;-82
2021/11/29 09:10:39;;;;;;;0.17;0.17;;;3.60;99.90;;;;;;5047415;28;20348;-82
2021/11/29 09:13:06;;;;;;;0.30;0.30;;;3.70;99.90;;;;;;5029396;28;20184;-81
2021/11/29 09:15:32;;;;;;;0.10;0.10;;;3.80;99.90;;;;;;5030276;28;20198;-82
2021/11/29 09:17:58;;;;;;;1.30;1.20;;;3.90;99.90;;;;;;5031746;28;20302;-82
2021/11/29 09:20:26;;;;;;;0.20;0.20;;;3.90;99.90;;;;;;5057381;28;20669;-82
2021/11/29 09:22:54;;;;;;;0.70;0.20;;;3.90;99.90;;;;;;5030431;28;20243;-81
2021/11/29 09:25:20;;;;;;;0.30;0.30;;;3.90;99.90;;;;;;5031293;28;20279;-81
2021/11/29 09:27:45;;;;;;;0.10;0.10;;;3.90;99.90;;;;;;5029331;28;20213;-81
2021/11/29 09:30:13;;;;;;;0.20;0.20;;;3.90;99.90;;;;;;5048004;28;20187;-82
2021/11/29 09:32:39;;;;;;;0.20;0.20;;;3.90;99.90;;;;;;5030788;28;20200;-82
2021/11/29 09:35:13;;;;;;;0.10;0.10;;;4.10;99.90;;;;;;5027521;28;20207;-82
2021/11/29 09:37:40;;;;;;;0.10;0.10;;;4.20;99.90;;;;;;5029162;28;20212;-85
2021/11/29 09:40:08;;;;;;;0.30;0.30;;;4.30;99.90;;;;;;5030793;28;20188;-84
2021/11/29 09:42:37;;;;;;;0.60;0.60;;;4.30;99.90;;;;;;5029137;28;20212;-83
2021/11/29 09:45:05;;;;;;;0.47;0.47;;;4.40;99.90;;;;;;5029786;28;20195;-84
2021/11/29 09:47:32;;;;;;;0.20;0.20;;;4.50;99.90;;;;;;5029810;28;21180;-84
2021/11/29 09:49:58;;;;;;;1.80;0.50;;;4.50;99.90;;;;;;5031160;28;20193;-83
2021/11/29 09:52:26;;;;;;;0.47;0.40;;;4.60;99.90;;;;;;5030252;28;20194;-84
2021/11/29 09:54:53;;;;;;;0.40;0.40;;;4.60;99.90;;;;;;5048481;28;20183;-84
2021/11/29 09:57:21;;;;;;;0.13;0.13;;;4.50;99.90;;;;;;5030533;28;20591;-84
2021/11/29 09:59:47;;;;;;;1.23;0.53;;;4.50;99.90;;;;;;5030248;28;20198;-84
2021/11/29 10:02:14;;;;;;;0.33;0.20;;;4.50;99.90;;;;;;5030468;28;20189;-84
2021/11/29 10:04:48;;;;;;;0.27;0.27;;;4.60;99.90;;;;;;5028312;28;20272;-84
2021/11/29 10:07:36;;;;;;;0.30;0.30;;;4.60;99.90;;;;;;5033122;28;20189;-84
2021/11/29 10:10:31;;;;;;;0.20;0.20;;;4.50;99.90;;;;;;5043222;28;20199;-84
2021/11/29 10:13:06;;;;;;;0.10;0.10;;;4.50;99.90;;;;;;5027675;28;20193;-84
2021/11/29 10:15:36;;;;;;;0.23;0.23;;;4.60;99.90;;;;;;5029195;28;20184;-84
2021/11/29 10:18:21;;;;;;;0.40;0.40;;;4.50;99.90;;;;;;5048524;28;20211;-84
2021/11/29 10:20:56;;;;;;;0.40;0.40;;;4.60;99.90;;;;;;5030096;28;20188;-82
2021/11/29 10:23:37;;;;;;;0.20;0.20;;;4.60;99.90;;;;;;5030352;28;20841;-82
2021/11/29 10:26:18;;;;;;;0.10;0.10;;;4.70;99.90;;;;;;5030798;28;20210;-82
2021/11/29 10:28:47;;;;;;;1.60;0.77;;;4.80;99.90;;;;;;5031473;28;20215;-82
2021/11/29 10:31:22;;;;;;;0.70;0.40;;;4.80;99.90;;;;;;5030360;28;20186;-82
2021/11/29 10:33:57;;;;;;;1.10;0.30;;;4.80;99.90;;;;;;5028137;28;20224;-82
2021/11/29 10:36:24;;;;;;;0.10;0.10;;;4.80;99.90;;;;;;5030196;28;20242;-82
2021/11/29 10:39:01;;;;;;;0.43;0.43;;;4.70;99.90;;;;;;5031274;28;20214;-82
2021/11/29 10:41:34;;;;;;;0.30;0.30;;;4.70;99.90;;;;;;5031819;28;20194;-82
2021/11/29 10:44:02;;;;;;;0.30;0.30;;;4.70;99.90;;;;;;5050703;28;20281;-82
2021/11/29 10:46:36;;;;;;;0.47;0.47;;;4.70;99.90;;;;;;5051698;28;20196;-84
2021/11/29 10:49:07;;;;;;;0.67;0.47;;;4.70;99.90;;;;;;5033142;28;20264;-83
2021/11/29 10:51:34;;;;;;;0.40;0.30;;;4.60;99.90;;;;;;5054462;28;20180;-82
2021/11/29 10:54:03;;;;;;;0.50;0.20;;;4.70;99.90;;;;;;5052578;28;20361;-82
2021/11/29 10:56:31;;;;;;;0.40;0.40;;;4.70;99.90;;;;;;5031488;28;20809;-81
2021/11/29 10:59:01;;;;;;;0.57;0.40;;;4.70;99.90;;;;;;5035676;28;20212;-81
2021/11/29 11:01:42;;;;;;;0.47;0.47;;;4.90;99.90;;;;;;5035574;28;20914;-82
2021/11/29 11:04:28;;;;;;;0.13;0.13;;;5.00;99.90;;;;;;5036267;28;20293;-82
2021/11/29 11:06:57;;;;;;;0.00;0.00;;;5.00;99.90;;;;;;5036577;28;20225;-81
2021/11/29 11:09:28;;;;;;;0.10;0.10;;;5.00;99.90;;;;;;5036646;28;20236;-81
2021/11/29 11:12:00;;;;;;;0.07;0.07;;;5.00;99.90;;;;;;5036260;28;20182;-81
2021/11/29 11:14:37;;;;;;;0.40;0.40;;;5.00;99.90;;;;;;5035481;28;20321;-81
2021/11/29 11:17:05;;;;;;;0.10;0.10;;;4.90;99.90;;;;;;5035327;28;20681;-81
2021/11/29 11:19:32;;;;;;;0.17;0.17;;;4.90;99.90;;;;;;5036423;28;20286;-81
2021/11/29 11:22:16;;;;;;;0.30;0.30;;;4.90;99.90;;;;;;5034974;28;20273;-81
2021/11/29 11:24:49;;;;;;;1.53;0.87;;;4.90;99.90;;;;;;5038377;28;20186;-81
2021/11/29 11:27:16;;;;;;;4.43;0.40;;;4.90;99.90;;;;;;5033713;28;20185;-81
2021/11/29 11:29:49;;;;;;;0.20;0.20;;;5.00;99.90;;;;;;5036650;28;20182;-82
2021/11/29 11:32:25;;;;;;;0.10;0.10;;;5.10;99.90;;;;;;5052501;28;20195;-81
2021/11/29 11:35:13;;;;;;;0.20;0.20;;;5.10;99.90;;;;;;5034148;28;20621;-82
2021/11/29 11:37:42;;;;;;;0.30;0.30;;;5.10;99.90;;;;;;5034575;28;20679;-80
2021/11/29 11:40:14;;;;;;;0.20;0.20;;;5.20;99.90;;;;;;5053431;28;20178;-81
2021/11/29 11:42:41;;;;;;;0.10;0.10;;;5.40;99.90;;;;;;5035145;28;20217;-81
2021/11/29 11:45:10;;;;;;;0.77;0.20;;;5.60;99.90;;;;;;5033249;28;20247;-81
2021/11/29 11:47:37;;;;;;;0.10;0.10;;;5.70;99.90;;;;;;5033748;28;20187;-81
2021/11/29 11:50:05;;;;;;;0.20;0.20;;;5.60;99.90;;;;;;5035730;28;20689;-81
2021/11/29 11:52:32;;;;;;;0.23;0.23;;;5.60;99.90;;;;;;5036571;28;20310;-81
2021/11/29 11:55:00;;;;;;;0.97;0.77;;;5.60;99.90;;;;;;5033053;28;20186;-81
2021/11/29 11:57:28;;;;;;;0.20;0.20;;;5.60;99.90;;;;;;5033123;28;20210;-81
2021/11/29 12:00:15;;;;;;;0.00;0.00;;;5.60;99.90;;;;;;5033880;28;20182;-81
2021/11/29 12:02:46;;;;;;;0.57;0.57;;;5.50;99.90;;;;;;5052492;28;20213;-81
2021/11/29 12:05:14;;;;;;;1.43;0.40;;;5.50;99.90;;;;;;5033972;28;20315;-81
2021/11/29 12:07:41;;;;;;;0.33;0.33;;;5.50;99.90;;;;;;5035856;28;20209;-81
2021/11/29 12:10:33;;;;;;;0.10;0.10;;;5.50;99.90;;;;;;5040482;28;20206;-81
2021/11/29 12:13:02;;;;;;;0.10;0.10;;;5.40;99.90;;;;;;5036548;28;20183;-82
2021/11/29 12:15:48;;;;;;;0.10;0.10;;;5.50;99.90;;;;;;5050874;28;20182;-81
2021/11/29 12:18:32;;;;;;;1.90;0.13;;;5.50;99.90;;;;;;5058305;28;20583;-81
2021/11/29 12:21:17;;;;;;;0.30;0.27;;;5.60;99.90;;;;;;5032761;28;20197;-81
2021/11/29 12:23:48;;;;;;;0.90;0.90;;;5.60;99.90;;;;;;5033906;28;20300;-81
2021/11/29 12:26:15;;;;;;;0.00;0.00;;;5.60;99.90;;;;;;5034621;28;20223;-81
2021/11/29 12:28:44;;;;;;;0.20;0.10;;;5.60;99.90;;;;;;5063969;28;20205;-81
2021/11/29 12:31:39;;;;;;;0.10;0.10;;;5.70;99.90;;;;;;5057104;28;20182;-81
2021/11/29 12:34:09;;;;;;;0.83;0.43;;;5.80;99.90;;;;;;5052035;28;20186;-81
2021/11/29 12:37:12;;;;;;;0.17;0.17;;;5.80;99.90;;;;;;5034455;28;20194;-81
2021/11/29 12:39:43;;;;;;;0.20;0.20;;;5.80;99.90;;;;;;5031437;28;20297;-81
2021/11/29 12:42:27;;;;;;;0.10;0.10;;;5.80;99.90;;;;;;5038493;28;20182;-81
2021/11/29 12:45:03;;;;;;;0.23;0.10;;;5.70;99.90;;;;;;5057631;28;20173;-81
2021/11/29 12:47:33;;;;;;;0.20;0.20;;;5.70;99.90;;;;;;5035367;28;20181;-81
2021/11/29 12:50:02;;;;;;;0.40;0.40;;;5.80;99.90;;;;;;5040168;28;20190;-81
2021/11/29 12:52:47;;;;;;;0.10;0.10;;;5.70;99.90;;;;;;5029302;28;20603;-81
2021/11/29 12:55:19;;;;;;;0.20;0.20;;;5.80;99.90;;;;;;5030556;28;20276;-81
2021/11/29 12:57:46;;;;;;;0.20;0.20;;;5.90;99.90;;;;;;5031698;28;20211;-81
2021/11/29 13:00:25;;;;;;;2.20;0.40;;;5.90;99.90;;;;;;5031043;28;20224;-80
2021/11/29 13:02:57;;;;;;;0.40;0.40;;;5.90;99.90;;;;;;5029281;28;20232;-81